Time;durP1;ratioP1;P1;durP2;ratioP2;P2;SDS_P1;SDS_P2;PMS_P1;PMS_P2;Temp;Humidity;BMP_temperature;BMP_pressure;BME280_temperature;BME280_humidity;BME280_pressure;Samples;Min_cycle;Max_cycle;Signal;HPM_P1;HPM_P2
2021/06/03 00:00:57;;;;;;;;;5.00;5.00;;;;;;;;3724376;38;20509;-62
2021/06/03 00:03:24;;;;;;;;;4.25;4.25;;;;;;;;3724488;37;20458;-62
2021/06/03 00:05:51;;;;;;;;;4.50;4.00;;;;;;;;3724629;37;20464;-61
2021/06/03 00:08:18;;;;;;;;;7.25;7.00;;;;;;;;3724951;38;20470;-62
2021/06/03 00:10:50;;;;;;;;;6.00;5.50;;;;;;;;3724909;37;20512;-62
2021/06/03 00:13:16;;;;;;;;;5.75;5.25;;;;;;;;3725074;38;20449;-64
2021/06/03 00:15:43;;;;;;;;;3.00;3.00;;;;;;;;3724955;37;20489;-62
2021/06/03 00:18:10;;;;;;;;;6.00;4.50;;;;;;;;3724899;38;20475;-62
2021/06/03 00:20:36;;;;;;;;;5.25;4.25;;;;;;;;3724597;37;20471;-62
2021/06/03 00:23:03;;;;;;;;;5.75;4.75;;;;;;;;3724800;38;20434;-62
2021/06/03 00:25:33;;;;;;;;;4.50;4.50;;;;;;;;3724976;38;20458;-64
2021/06/03 00:27:59;;;;;;;;;5.00;4.25;;;;;;;;3724913;37;20426;-62
2021/06/03 00:30:26;;;;;;;;;5.75;5.75;;;;;;;;3725040;37;20459;-62
2021/06/03 00:32:53;;;;;;;;;4.00;4.00;;;;;;;;3724999;38;20430;-62
2021/06/03 00:35:21;;;;;;;;;4.25;4.25;;;;;;;;3725044;38;20448;-61
2021/06/03 00:37:48;;;;;;;;;5.25;4.25;;;;;;;;3725068;37;20436;-63
2021/06/03 00:40:15;;;;;;;;;2.00;2.00;;;;;;;;3724995;37;20414;-61
2021/06/03 00:42:42;;;;;;;;;3.50;3.50;;;;;;;;3724934;38;20413;-64
2021/06/03 00:45:11;;;;;;;;;3.75;3.75;;;;;;;;3725007;37;20489;-63
2021/06/03 00:47:39;;;;;;;;;4.50;4.00;;;;;;;;3725026;37;20411;-62
2021/06/03 00:50:25;;;;;;;;;8.00;6.00;;;;;;;;3724985;38;20426;-64
2021/06/03 00:52:51;;;;;;;;;4.50;4.50;;;;;;;;3724577;38;20421;-65
2021/06/03 00:55:19;;;;;;;;;5.00;4.50;;;;;;;;3724988;37;20429;-66
2021/06/03 00:57:47;;;;;;;;;6.00;6.00;;;;;;;;3724746;37;20402;-66
2021/06/03 01:00:15;;;;;;;;;6.00;6.00;;;;;;;;3724479;37;20414;-66
2021/06/03 01:02:45;;;;;;;;;4.50;4.50;;;;;;;;3724298;38;20419;-66
2021/06/03 01:05:12;;;;;;;;;5.50;5.00;;;;;;;;3724644;38;20435;-66
2021/06/03 01:07:38;;;;;;;;;5.00;5.00;;;;;;;;3724712;37;20401;-66
2021/06/03 01:10:13;;;;;;;;;5.00;5.00;;;;;;;;3725007;37;20403;-67
2021/06/03 01:12:53;;;;;;;;;4.75;4.75;;;;;;;;3725074;37;18198;-66
2021/06/03 01:15:20;;;;;;;;;5.50;5.25;;;;;;;;3725129;37;20485;-66
2021/06/03 01:17:47;;;;;;;;;6.25;5.75;;;;;;;;3724697;38;20374;-64
2021/06/03 01:20:14;;;;;;;;;6.75;6.00;;;;;;;;3725188;37;20373;-64
2021/06/03 01:22:52;;;;;;;;;5.00;4.00;;;;;;;;3725105;37;20364;-67
2021/06/03 01:25:19;;;;;;;;;2.00;2.00;;;;;;;;3725384;37;20390;-67
2021/06/03 01:27:46;;;;;;;;;3.00;3.00;;;;;;;;3724994;38;20382;-66
2021/06/03 01:30:27;;;;;;;;;7.00;6.00;;;;;;;;3724891;37;20364;-66
2021/06/03 01:33:00;;;;;;;;;5.25;5.25;;;;;;;;3724849;38;20380;-67
2021/06/03 01:35:30;;;;;;;;;6.50;6.50;;;;;;;;3724817;38;20379;-66
2021/06/03 01:37:56;;;;;;;;;5.00;5.00;;;;;;;;3725149;38;20366;-66
2021/06/03 01:40:27;;;;;;;;;4.50;4.50;;;;;;;;3725105;38;20378;-66
2021/06/03 01:42:54;;;;;;;;;3.50;3.50;;;;;;;;3725167;38;20363;-67
2021/06/03 01:45:20;;;;;;;;;4.25;4.25;;;;;;;;3724748;38;20354;-67
2021/06/03 01:47:46;;;;;;;;;5.75;5.75;;;;;;;;3724811;38;20340;-66
2021/06/03 01:50:13;;;;;;;;;5.00;5.00;;;;;;;;3725085;37;20346;-67
2021/06/03 01:52:40;;;;;;;;;5.50;5.50;;;;;;;;3725103;37;18166;-66
2021/06/03 01:55:11;;;;;;;;;4.25;4.00;;;;;;;;3724774;38;20330;-66
2021/06/03 01:57:37;;;;;;;;;6.50;6.00;;;;;;;;3724825;38;20326;-66
2021/06/03 02:00:08;;;;;;;;;5.00;5.00;;;;;;;;3724872;37;20329;-67
2021/06/03 02:02:34;;;;;;;;;5.50;5.50;;;;;;;;3725156;37;20341;-67
2021/06/03 02:05:03;;;;;;;;;5.25;5.25;;;;;;;;3724877;37;20424;-66
2021/06/03 02:07:30;;;;;;;;;5.75;5.75;;;;;;;;3725141;38;20310;-66
2021/06/03 02:09:56;;;;;;;;;4.00;4.00;;;;;;;;3724804;37;20321;-67
2021/06/03 02:12:25;;;;;;;;;5.25;5.25;;;;;;;;3724927;37;20321;-66
2021/06/03 02:14:52;;;;;;;;;3.50;3.50;;;;;;;;3724727;37;20335;-65
2021/06/03 02:17:21;;;;;;;;;2.25;2.25;;;;;;;;3725126;38;20396;-65
2021/06/03 02:20:08;;;;;;;;;5.00;5.00;;;;;;;;3724733;38;20387;-66
2021/06/03 02:22:36;;;;;;;;;5.50;5.50;;;;;;;;3724611;37;20312;-66
2021/06/03 02:25:04;;;;;;;;;4.75;4.75;;;;;;;;3724779;37;20294;-65
2021/06/03 02:27:30;;;;;;;;;5.50;5.50;;;;;;;;3725050;37;20255;-66
2021/06/03 02:30:00;;;;;;;;;6.00;6.00;;;;;;;;3725049;37;20299;-66
2021/06/03 02:32:32;;;;;;;;;5.00;5.00;;;;;;;;3724981;38;20292;-65
2021/06/03 02:34:59;;;;;;;;;4.00;4.00;;;;;;;;3724954;37;20277;-66
2021/06/03 02:37:26;;;;;;;;;3.00;3.00;;;;;;;;3725261;37;20280;-63
2021/06/03 02:40:00;;;;;;;;;6.75;6.75;;;;;;;;3724911;37;20439;-65
2021/06/03 02:42:28;;;;;;;;;5.00;5.00;;;;;;;;3724968;37;20285;-66
2021/06/03 02:44:58;;;;;;;;;6.50;6.00;;;;;;;;3724902;37;20276;-65
2021/06/03 02:47:25;;;;;;;;;5.00;5.00;;;;;;;;3725017;37;20270;-66
2021/06/03 02:49:51;;;;;;;;;6.00;6.00;;;;;;;;3725264;38;20278;-64
2021/06/03 02:52:17;;;;;;;;;5.75;5.75;;;;;;;;3725041;38;20263;-66
2021/06/03 02:54:43;;;;;;;;;7.00;7.00;;;;;;;;3725142;37;20259;-64
2021/06/03 02:57:11;;;;;;;;;5.25;5.25;;;;;;;;3725158;37;18079;-65
2021/06/03 02:59:41;;;;;;;;;7.00;7.00;;;;;;;;3724910;37;20249;-65
2021/06/03 03:02:07;;;;;;;;;4.50;4.50;;;;;;;;3724774;37;20234;-65
2021/06/03 03:04:34;;;;;;;;;8.00;8.00;;;;;;;;3725180;38;20265;-65
2021/06/03 03:07:02;;;;;;;;;5.50;5.50;;;;;;;;3725325;38;20257;-65
2021/06/03 03:09:28;;;;;;;;;7.50;7.50;;;;;;;;3725407;37;18079;-64
2021/06/03 03:11:54;;;;;;;;;5.50;5.50;;;;;;;;3725093;38;20231;-64
2021/06/03 03:14:20;;;;;;;;;4.00;3.75;;;;;;;;3725212;37;20311;-65
2021/06/03 03:16:46;;;;;;;;;5.50;5.50;;;;;;;;3725289;37;18064;-66
2021/06/03 03:19:12;;;;;;;;;7.00;7.00;;;;;;;;3728501;38;18041;-66
2021/06/03 03:21:38;;;;;;;;;8.00;7.00;;;;;;;;3725715;38;18062;-65
2021/06/03 03:24:05;;;;;;;;;6.00;5.00;;;;;;;;3725288;38;20214;-65
2021/06/03 03:26:30;;;;;;;;;7.75;7.75;;;;;;;;3725273;37;18033;-65
2021/06/03 03:29:03;;;;;;;;;7.00;7.00;;;;;;;;3725439;38;20233;-65
2021/06/03 03:31:36;;;;;;;;;7.75;7.00;;;;;;;;3724867;37;20214;-64
2021/06/03 03:34:03;;;;;;;;;7.50;7.50;;;;;;;;3725254;38;20198;-66
2021/06/03 03:36:31;;;;;;;;;11.25;10.75;;;;;;;;3725044;37;20214;-64
2021/06/03 03:38:57;;;;;;;;;8.25;7.25;;;;;;;;3724826;38;20251;-65
2021/06/03 03:41:25;;;;;;;;;9.00;8.50;;;;;;;;3725168;38;20232;-66
2021/06/03 03:43:51;;;;;;;;;9.25;9.25;;;;;;;;3724665;37;20200;-65
2021/06/03 03:46:17;;;;;;;;;6.25;6.25;;;;;;;;3725120;37;20227;-65
2021/06/03 03:48:44;;;;;;;;;7.00;7.00;;;;;;;;3725216;37;20192;-65
2021/06/03 03:51:13;;;;;;;;;10.00;9.00;;;;;;;;3724786;37;20183;-64
2021/06/03 03:53:43;;;;;;;;;8.25;8.25;;;;;;;;3724897;37;20215;-65
2021/06/03 03:56:11;;;;;;;;;7.50;7.00;;;;;;;;3725229;38;20170;-65
2021/06/03 03:58:39;;;;;;;;;5.75;5.75;;;;;;;;3725159;37;20191;-64
2021/06/03 04:01:08;;;;;;;;;8.00;7.75;;;;;;;;3725123;38;20183;-65
2021/06/03 04:03:34;;;;;;;;;11.00;10.50;;;;;;;;3724968;38;20195;-64
2021/06/03 04:06:00;;;;;;;;;8.00;8.00;;;;;;;;3724979;37;20163;-65
2021/06/03 04:08:28;;;;;;;;;7.00;7.00;;;;;;;;3724766;38;20150;-66
2021/06/03 04:10:53;;;;;;;;;8.00;8.00;;;;;;;;3724852;37;17975;-66
2021/06/03 04:13:20;;;;;;;;;7.00;7.00;;;;;;;;3724980;37;20161;-64
2021/06/03 04:15:46;;;;;;;;;10.00;9.00;;;;;;;;3725466;37;18110;-65
2021/06/03 04:18:12;;;;;;;;;9.25;9.00;;;;;;;;3725050;37;20207;-64
2021/06/03 04:20:38;;;;;;;;;9.00;9.00;;;;;;;;3725092;38;20150;-66
2021/06/03 04:23:04;;;;;;;;;9.00;8.00;;;;;;;;3725115;38;20145;-64
2021/06/03 04:25:31;;;;;;;;;9.25;8.25;;;;;;;;3725132;38;20144;-65
2021/06/03 04:27:57;;;;;;;;;10.00;10.00;;;;;;;;3724998;37;20161;-64
2021/06/03 04:30:24;;;;;;;;;9.00;9.00;;;;;;;;3724999;38;20171;-63
2021/06/03 04:32:51;;;;;;;;;8.50;8.50;;;;;;;;3724611;38;20188;-65
2021/06/03 04:35:19;;;;;;;;;10.25;10.25;;;;;;;;3724952;37;20123;-64
2021/06/03 04:37:45;;;;;;;;;9.00;9.00;;;;;;;;3724853;38;20182;-65
2021/06/03 04:40:12;;;;;;;;;10.50;10.50;;;;;;;;3725140;38;20144;-64
2021/06/03 04:42:38;;;;;;;;;8.00;8.00;;;;;;;;3725143;37;20134;-64
2021/06/03 04:45:05;;;;;;;;;10.50;10.25;;;;;;;;3724911;38;20094;-64
2021/06/03 04:47:31;;;;;;;;;9.50;9.50;;;;;;;;3725196;37;17949;-65
2021/06/03 04:49:57;;;;;;;;;10.25;10.25;;;;;;;;3725020;38;20158;-65
2021/06/03 04:52:28;;;;;;;;;10.00;9.75;;;;;;;;3725087;38;20153;-64
2021/06/03 04:54:55;;;;;;;;;9.25;9.25;;;;;;;;3725292;38;20120;-64
2021/06/03 04:57:21;;;;;;;;;10.00;9.00;;;;;;;;3725041;38;20082;-65
2021/06/03 04:59:48;;;;;;;;;7.00;6.50;;;;;;;;3725207;37;20133;-63
2021/06/03 05:02:22;;;;;;;;;9.25;9.00;;;;;;;;3725233;38;20392;-64
2021/06/03 05:04:49;;;;;;;;;6.25;6.25;;;;;;;;3725003;37;20077;-63
2021/06/03 05:07:16;;;;;;;;;10.00;10.00;;;;;;;;3725218;37;20089;-64
2021/06/03 05:09:46;;;;;;;;;11.00;11.00;;;;;;;;3724804;37;20114;-64
2021/06/03 05:12:13;;;;;;;;;10.50;10.50;;;;;;;;3725094;37;20099;-64
2021/06/03 05:14:39;;;;;;;;;10.00;9.75;;;;;;;;3725222;37;20126;-63
2021/06/03 05:17:05;;;;;;;;;10.75;10.00;;;;;;;;3725029;37;20120;-64
2021/06/03 05:19:33;;;;;;;;;11.75;11.00;;;;;;;;3725173;37;20102;-62
2021/06/03 05:22:00;;;;;;;;;8.75;7.25;;;;;;;;3724859;37;20171;-63
2021/06/03 05:24:28;;;;;;;;;10.25;9.25;;;;;;;;3725258;38;20062;-63
2021/06/03 05:26:55;;;;;;;;;9.50;9.00;;;;;;;;3725380;37;20076;-63
2021/06/03 05:29:21;;;;;;;;;8.75;8.75;;;;;;;;3725175;37;20050;-62
2021/06/03 05:31:47;;;;;;;;;8.75;8.75;;;;;;;;3725124;37;20094;-63
2021/06/03 05:34:13;;;;;;;;;7.50;7.50;;;;;;;;3725339;37;17870;-65
2021/06/03 05:36:39;;;;;;;;;5.50;5.50;;;;;;;;3725283;38;20028;-64
2021/06/03 05:39:06;;;;;;;;;9.00;8.75;;;;;;;;3725353;38;20066;-64
2021/06/03 05:41:32;;;;;;;;;10.50;10.00;;;;;;;;3725239;37;17854;-65
2021/06/03 05:43:59;;;;;;;;;11.25;11.00;;;;;;;;3725445;38;20067;-65
2021/06/03 05:46:25;;;;;;;;;9.75;9.75;;;;;;;;3725418;38;20269;-66
2021/06/03 05:48:53;;;;;;;;;9.00;9.00;;;;;;;;3725411;38;20116;-65
2021/06/03 05:51:19;;;;;;;;;9.50;8.50;;;;;;;;3724925;38;20028;-62
2021/06/03 05:53:45;;;;;;;;;9.50;9.50;;;;;;;;3725213;37;20038;-62
2021/06/03 05:56:10;;;;;;;;;6.75;6.75;;;;;;;;3725221;38;17862;-62
2021/06/03 05:58:36;;;;;;;;;8.25;8.25;;;;;;;;3726662;37;20060;-64
2021/06/03 06:01:03;;;;;;;;;8.50;8.00;;;;;;;;3726111;38;17826;-61
2021/06/03 06:03:37;;;;;;;;;10.75;10.50;;;;;;;;3725621;38;19979;-68
2021/06/03 06:09:05;;;;;;;;;7.50;7.00;;;;;;;;3725367;38;20237;-67
2021/06/03 06:11:37;;;;;;;;;8.00;8.00;;;;;;;;3725409;37;20013;-66
2021/06/03 06:14:04;;;;;;;;;7.75;7.75;;;;;;;;3725252;37;20025;-66
2021/06/03 06:16:31;;;;;;;;;10.00;8.75;;;;;;;;3724889;37;20004;-67
2021/06/03 06:18:57;;;;;;;;;10.00;10.00;;;;;;;;3725255;38;20006;-68
2021/06/03 06:21:25;;;;;;;;;10.00;10.00;;;;;;;;3725343;37;20024;-66
2021/06/03 06:23:56;;;;;;;;;10.00;9.00;;;;;;;;3724961;37;20036;-67
2021/06/03 06:26:23;;;;;;;;;9.00;9.00;;;;;;;;3725051;37;20013;-66
2021/06/03 06:28:50;;;;;;;;;10.50;10.00;;;;;;;;3725424;37;19980;-66
2021/06/03 06:31:17;;;;;;;;;12.25;10.00;;;;;;;;3725648;37;19978;-66
2021/06/03 06:33:44;;;;;;;;;8.75;8.75;;;;;;;;3725061;38;19997;-66
2021/06/03 06:36:11;;;;;;;;;11.25;11.00;;;;;;;;3725110;37;19982;-67
2021/06/03 06:38:40;;;;;;;;;11.00;11.00;;;;;;;;3725348;37;19986;-68
2021/06/03 06:41:07;;;;;;;;;9.00;9.00;;;;;;;;3725082;38;20005;-67
2021/06/03 06:43:34;;;;;;;;;10.25;9.00;;;;;;;;3724845;38;19982;-66
2021/06/03 06:46:02;;;;;;;;;8.00;8.00;;;;;;;;3724967;37;19958;-67
2021/06/03 06:48:29;;;;;;;;;8.50;8.25;;;;;;;;3724858;38;19947;-67
2021/06/03 06:50:56;;;;;;;;;7.75;7.50;;;;;;;;3724932;37;19958;-68
2021/06/03 06:53:28;;;;;;;;;6.00;6.00;;;;;;;;3724990;37;19938;-66
2021/06/03 06:55:56;;;;;;;;;6.00;6.00;;;;;;;;3724770;37;19935;-61
2021/06/03 06:58:22;;;;;;;;;4.25;4.25;;;;;;;;3724819;38;19923;-63
2021/06/03 07:00:49;;;;;;;;;6.25;6.25;;;;;;;;3724807;37;19946;-62
2021/06/03 07:03:15;;;;;;;;;6.50;6.50;;;;;;;;3724828;37;17748;-62
2021/06/03 07:05:48;;;;;;;;;6.25;6.25;;;;;;;;3724983;37;19924;-62
2021/06/03 07:08:15;;;;;;;;;6.50;6.50;;;;;;;;3724989;38;19936;-61
2021/06/03 07:10:42;;;;;;;;;5.00;5.00;;;;;;;;3724938;37;19929;-61
2021/06/03 07:13:08;;;;;;;;;5.00;5.00;;;;;;;;3725065;38;19948;-63
2021/06/03 07:15:35;;;;;;;;;5.75;5.75;;;;;;;;3725013;38;19902;-63
2021/06/03 07:18:02;;;;;;;;;5.00;5.00;;;;;;;;3725060;38;19936;-64
2021/06/03 07:20:28;;;;;;;;;3.00;3.00;;;;;;;;3724685;37;17723;-62
2021/06/03 07:23:00;;;;;;;;;6.00;6.00;;;;;;;;3725053;37;19906;-63
2021/06/03 07:25:27;;;;;;;;;4.50;4.50;;;;;;;;3725261;38;19905;-62
2021/06/03 07:27:53;;;;;;;;;5.00;5.00;;;;;;;;3724890;37;19921;-63
2021/06/03 07:30:21;;;;;;;;;5.00;5.00;;;;;;;;3725110;38;19901;-63
2021/06/03 07:32:47;;;;;;;;;5.00;5.00;;;;;;;;3725061;38;19921;-63
2021/06/03 07:35:14;;;;;;;;;6.25;6.00;;;;;;;;3725203;38;19975;-62
2021/06/03 07:37:42;;;;;;;;;7.00;6.00;;;;;;;;3725239;37;19950;-64
2021/06/03 07:40:10;;;;;;;;;4.50;4.50;;;;;;;;3725191;38;19965;-63
2021/06/03 07:42:37;;;;;;;;;5.50;5.25;;;;;;;;3725037;38;19959;-62
2021/06/03 07:45:08;;;;;;;;;4.00;4.00;;;;;;;;3724962;38;19878;-62
2021/06/03 07:47:36;;;;;;;;;6.00;6.00;;;;;;;;3725214;37;19958;-62
2021/06/03 07:50:04;;;;;;;;;7.50;6.25;;;;;;;;3725178;38;19932;-62
2021/06/03 07:52:30;;;;;;;;;4.00;4.00;;;;;;;;3725022;37;19941;-62
2021/06/03 07:54:55;;;;;;;;;5.00;5.00;;;;;;;;3725055;37;19946;-62
2021/06/03 07:57:24;;;;;;;;;5.50;5.50;;;;;;;;3725937;37;17685;-64
2021/06/03 07:59:52;;;;;;;;;5.50;5.50;;;;;;;;3725685;37;19936;-63
2021/06/03 08:02:18;;;;;;;;;6.00;6.00;;;;;;;;3725342;38;19940;-66
2021/06/03 08:04:44;;;;;;;;;4.25;4.25;;;;;;;;3725384;37;19931;-65
2021/06/03 08:07:10;;;;;;;;;5.00;4.50;;;;;;;;3725436;37;17687;-66
2021/06/03 08:09:37;;;;;;;;;6.50;6.50;;;;;;;;3729276;38;17656;-74
2021/06/03 08:12:04;;;;;;;;;5.50;5.25;;;;;;;;3725828;37;17676;-73
2021/06/03 08:14:31;;;;;;;;;6.75;5.75;;;;;;;;3725631;37;19913;-75
2021/06/03 08:16:57;;;;;;;;;5.00;5.00;;;;;;;;3725668;37;19850;-74
2021/06/03 08:19:24;;;;;;;;;7.00;6.00;;;;;;;;3725567;37;19924;-75
2021/06/03 08:21:51;;;;;;;;;7.00;6.00;;;;;;;;3725619;38;19887;-74
2021/06/03 08:24:17;;;;;;;;;5.75;5.75;;;;;;;;3725209;38;19881;-72
2021/06/03 08:26:49;;;;;;;;;4.75;4.75;;;;;;;;3725288;38;19894;-75
2021/06/03 08:29:15;;;;;;;;;5.00;5.00;;;;;;;;3725687;37;19828;-73
2021/06/03 08:31:41;;;;;;;;;7.00;6.50;;;;;;;;3725482;37;19832;-72
2021/06/03 08:34:11;;;;;;;;;6.50;6.00;;;;;;;;3725615;38;17619;-72
2021/06/03 08:36:37;;;;;;;;;5.00;4.50;;;;;;;;3725308;37;19871;-74
2021/06/03 08:39:06;;;;;;;;;6.00;6.00;;;;;;;;3728605;38;19882;-74
2021/06/03 08:41:36;;;;;;;;;5.25;5.25;;;;;;;;3727059;38;19925;-72
2021/06/03 08:44:05;;;;;;;;;5.50;5.50;;;;;;;;3727713;37;19857;-73
2021/06/03 08:46:33;;;;;;;;;7.50;7.50;;;;;;;;3727822;37;19853;-72
2021/06/03 08:49:02;;;;;;;;;5.00;5.00;;;;;;;;3725343;38;19873;-74
2021/06/03 08:51:34;;;;;;;;;5.25;5.25;;;;;;;;3725159;38;19852;-73
2021/06/03 08:54:00;;;;;;;;;5.75;5.00;;;;;;;;3725605;37;19929;-74
2021/06/03 08:56:28;;;;;;;;;6.00;5.50;;;;;;;;3725627;37;19855;-75
2021/06/03 08:59:00;;;;;;;;;3.25;3.25;;;;;;;;3725522;37;19849;-73
2021/06/03 09:01:31;;;;;;;;;4.75;4.75;;;;;;;;3725453;38;19837;-74
2021/06/03 09:03:59;;;;;;;;;5.25;5.00;;;;;;;;3725487;37;19856;-74
2021/06/03 09:06:26;;;;;;;;;4.00;4.00;;;;;;;;3726693;37;19845;-73
2021/06/03 09:08:58;;;;;;;;;3.00;3.00;;;;;;;;3731485;38;19829;-74
2021/06/03 09:11:30;;;;;;;;;6.50;6.00;;;;;;;;3734786;38;19819;-74
2021/06/03 09:14:02;;;;;;;;;5.25;5.25;;;;;;;;3732661;38;19832;-75
2021/06/03 09:16:31;;;;;;;;;3.50;3.50;;;;;;;;3737544;37;19828;-74
2021/06/03 09:19:08;;;;;;;;;5.00;5.00;;;;;;;;3736557;38;19827;-73
2021/06/03 09:21:39;;;;;;;;;2.00;2.00;;;;;;;;3737673;37;19821;-74
2021/06/03 09:24:12;;;;;;;;;5.00;5.00;;;;;;;;3737127;38;19728;-74
2021/06/03 09:26:54;;;;;;;;;4.25;4.25;;;;;;;;3726892;38;19742;-75
2021/06/03 09:29:25;;;;;;;;;4.50;4.50;;;;;;;;3725906;38;19711;-74
2021/06/03 09:32:01;;;;;;;;;4.50;4.00;;;;;;;;3726226;37;19718;-74
2021/06/03 09:34:27;;;;;;;;;5.75;5.75;;;;;;;;3726168;37;19730;-75
2021/06/03 09:36:58;;;;;;;;;4.00;4.00;;;;;;;;3725850;38;19696;-74
2021/06/03 09:39:26;;;;;;;;;3.00;3.00;;;;;;;;3725881;37;19719;-74
2021/06/03 09:42:00;;;;;;;;;4.50;4.50;;;;;;;;3725359;37;19700;-76
2021/06/03 09:44:38;;;;;;;;;3.00;3.00;;;;;;;;3725261;37;19665;-73
2021/06/03 09:47:15;;;;;;;;;3.00;3.00;;;;;;;;3726005;38;19676;-76
2021/06/03 09:49:57;;;;;;;;;4.00;3.25;;;;;;;;3726032;38;19680;-74
2021/06/03 09:52:25;;;;;;;;;3.00;3.00;;;;;;;;3725485;37;19683;-76
2021/06/03 09:54:56;;;;;;;;;4.00;3.00;;;;;;;;3725679;38;19679;-75
2021/06/03 09:57:29;;;;;;;;;4.50;4.50;;;;;;;;3725593;37;19659;-75
2021/06/03 10:00:07;;;;;;;;;3.00;3.00;;;;;;;;3725625;38;19669;-76
2021/06/03 10:02:40;;;;;;;;;2.25;2.25;;;;;;;;3725846;37;19666;-76
2021/06/03 10:05:19;;;;;;;;;3.75;3.75;;;;;;;;3725671;37;19649;-76
2021/06/03 10:07:55;;;;;;;;;2.50;2.50;;;;;;;;3725692;37;20635;-76
2021/06/03 10:10:22;;;;;;;;;3.00;2.00;;;;;;;;3725650;37;19647;-76
2021/06/03 10:12:49;;;;;;;;;5.75;4.50;;;;;;;;3725554;37;20629;-77
2021/06/03 10:15:42;;;;;;;;;6.50;5.25;;;;;;;;3725938;37;19638;-77
2021/06/03 10:18:15;;;;;;;;;3.75;3.75;;;;;;;;3726197;38;20712;-75
2021/06/03 10:20:46;;;;;;;;;2.00;2.00;;;;;;;;3726059;37;20634;-77
2021/06/03 10:23:30;;;;;;;;;2.00;2.00;;;;;;;;3726211;37;20627;-77
2021/06/03 10:25:59;;;;;;;;;3.00;3.00;;;;;;;;3725530;38;20761;-78
2021/06/03 10:28:32;;;;;;;;;3.50;3.25;;;;;;;;3725861;38;20734;-76
2021/06/03 10:31:05;;;;;;;;;4.00;4.00;;;;;;;;3725768;38;20631;-77
2021/06/03 10:33:37;;;;;;;;;3.25;3.00;;;;;;;;3724985;37;20592;-77
2021/06/03 10:36:11;;;;;;;;;3.00;3.00;;;;;;;;3725228;37;20621;-77
2021/06/03 10:38:38;;;;;;;;;3.75;3.25;;;;;;;;3725430;37;20607;-78
2021/06/03 10:41:11;;;;;;;;;2.00;2.00;;;;;;;;3725075;37;20598;-78
2021/06/03 10:43:38;;;;;;;;;3.00;3.00;;;;;;;;3725263;37;20589;-76
2021/06/03 10:46:06;;;;;;;;;3.00;3.00;;;;;;;;3725609;38;20651;-77
2021/06/03 10:48:35;;;;;;;;;3.00;3.00;;;;;;;;3725480;38;20647;-78
2021/06/03 10:51:05;;;;;;;;;2.75;2.00;;;;;;;;3725685;38;20664;-77
2021/06/03 10:53:32;;;;;;;;;3.00;3.00;;;;;;;;3725634;37;20622;-77
2021/06/03 10:56:12;;;;;;;;;0.75;0.75;;;;;;;;3726073;37;20707;-77
2021/06/03 10:58:39;;;;;;;;;3.00;3.00;;;;;;;;3726053;38;20641;-76
2021/06/03 11:01:10;;;;;;;;;3.00;3.00;;;;;;;;3725612;38;20649;-78
2021/06/03 11:03:40;;;;;;;;;3.50;3.50;;;;;;;;3725777;38;20649;-78
2021/06/03 11:06:09;;;;;;;;;5.00;4.00;;;;;;;;3725361;37;20707;-78
2021/06/03 11:08:41;;;;;;;;;3.00;3.00;;;;;;;;3725750;37;20627;-77
2021/06/03 11:11:30;;;;;;;;;233.40;203.80;;;;;;;;3725342;38;20613;-75
2021/06/03 11:14:16;;;;;;;;;29.00;28.00;;;;;;;;3725810;37;18418;-70
2021/06/03 11:16:50;;;;;;;;;4.00;4.00;;;;;;;;3725659;37;20616;-67
2021/06/03 11:19:17;;;;;;;;;4.25;4.25;;;;;;;;3728722;38;20629;-67
2021/06/03 11:21:53;;;;;;;;;2.00;2.00;;;;;;;;3726130;37;20607;-68
2021/06/03 11:24:50;;;;;;;;;3.00;3.00;;;;;;;;3725233;37;20597;-68
2021/06/03 11:27:18;;;;;;;;;3.00;3.00;;;;;;;;3725838;37;20628;-71
2021/06/03 11:30:02;;;;;;;;;3.00;3.00;;;;;;;;3725361;37;20624;-71
2021/06/03 11:32:32;;;;;;;;;4.50;4.50;;;;;;;;3725451;37;20595;-71
2021/06/03 11:35:00;;;;;;;;;4.00;3.75;;;;;;;;3725481;37;20608;-72
2021/06/03 11:37:46;;;;;;;;;6.00;6.00;;;;;;;;3725756;37;20604;-71
2021/06/03 11:40:22;;;;;;;;;2.00;2.00;;;;;;;;3725693;38;20609;-71
2021/06/03 11:43:05;;;;;;;;;3.75;3.75;;;;;;;;3725182;38;20576;-71
2021/06/03 11:45:44;;;;;;;;;3.00;3.00;;;;;;;;3725487;38;20593;-72
2021/06/03 11:48:17;;;;;;;;;4.00;4.00;;;;;;;;3725202;37;20553;-71
2021/06/03 11:50:44;;;;;;;;;4.00;4.00;;;;;;;;3725443;37;20591;-72
2021/06/03 11:53:12;;;;;;;;;3.25;3.00;;;;;;;;3725377;37;20599;-67
2021/06/03 11:55:41;;;;;;;;;7.00;7.00;;;;;;;;3725421;37;20677;-70
2021/06/03 11:58:12;;;;;;;;;442.60;380.40;;;;;;;;3725132;38;20491;-71
2021/06/03 12:00:39;;;;;;;;;141.40;139.20;;;;;;;;3725507;38;18337;-71
2021/06/03 12:03:22;;;;;;;;;25.00;25.00;;;;;;;;3725674;37;18385;-68
2021/06/03 12:05:50;;;;;;;;;4.25;4.25;;;;;;;;3725403;37;20600;-66
2021/06/03 12:08:32;;;;;;;;;4.00;4.00;;;;;;;;3725400;38;20722;-66
2021/06/03 12:10:59;;;;;;;;;3.75;3.75;;;;;;;;3725062;38;20546;-67
2021/06/03 12:13:25;;;;;;;;;3.25;3.25;;;;;;;;3725379;38;20550;-67
2021/06/03 12:15:52;;;;;;;;;3.75;3.75;;;;;;;;3725503;37;20544;-66
2021/06/03 12:18:18;;;;;;;;;3.50;3.50;;;;;;;;3725674;37;20466;-66
2021/06/03 12:20:46;;;;;;;;;3.00;3.00;;;;;;;;3725640;37;20537;-67
2021/06/03 12:23:13;;;;;;;;;4.25;4.25;;;;;;;;3725063;37;20548;-67
2021/06/03 12:25:42;;;;;;;;;3.75;3.75;;;;;;;;3725079;37;20538;-63
2021/06/03 12:28:13;;;;;;;;;4.75;4.00;;;;;;;;3725185;38;20532;-66
2021/06/03 12:30:43;;;;;;;;;2.50;2.50;;;;;;;;3725228;38;20537;-66
2021/06/03 12:33:25;;;;;;;;;5.00;4.25;;;;;;;;3725312;38;20521;-68
2021/06/03 12:36:02;;;;;;;;;4.75;4.75;;;;;;;;3725262;38;20453;-69
2021/06/03 12:38:55;;;;;;;;;;;;;;;;;;;;;
2021/06/03 12:41:34;;;;;;;;;2.75;2.75;;;;;;;;3725523;37;20504;-67
2021/06/03 12:44:11;;;;;;;;;3.75;3.75;;;;;;;;3725128;37;20502;-67
2021/06/03 12:47:12;;;;;;;;;;;;;;;;;;;;;
2021/06/03 12:49:40;;;;;;;;;3.25;3.00;;;;;;;;3725529;37;20487;-66
2021/06/03 12:52:07;;;;;;;;;4.50;4.00;;;;;;;;3725315;38;20497;-67
2021/06/03 12:54:37;;;;;;;;;4.00;4.00;;;;;;;;3725075;38;20507;-67
2021/06/03 12:57:07;;;;;;;;;4.00;4.00;;;;;;;;3725621;38;20511;-66
2021/06/03 12:59:40;;;;;;;;;4.00;4.00;;;;;;;;3726847;37;20510;-65
2021/06/03 13:02:07;;;;;;;;;4.25;4.25;;;;;;;;3725403;37;20484;-65
2021/06/03 13:04:40;;;;;;;;;2.25;2.25;;;;;;;;3725440;38;20507;-66
2021/06/03 13:07:08;;;;;;;;;0.25;0.25;;;;;;;;3725510;37;20475;-66
2021/06/03 13:09:38;;;;;;;;;3.25;3.25;;;;;;;;3728121;38;20475;-64
2021/06/03 13:12:15;;;;;;;;;3.00;3.00;;;;;;;;3731400;37;20480;-65
2021/06/03 13:14:42;;;;;;;;;4.50;4.50;;;;;;;;3729774;37;20408;-66
2021/06/03 13:17:10;;;;;;;;;3.50;3.50;;;;;;;;3725763;37;20471;-67
2021/06/03 13:19:36;;;;;;;;;4.00;4.00;;;;;;;;3725438;37;20476;-66
2021/06/03 13:22:04;;;;;;;;;5.00;5.00;;;;;;;;3725554;37;20444;-65
2021/06/03 13:24:33;;;;;;;;;5.50;4.75;;;;;;;;3725535;37;20462;-66
2021/06/03 13:27:02;;;;;;;;;4.25;4.00;;;;;;;;3725572;37;20445;-65
2021/06/03 13:29:29;;;;;;;;;3.50;2.25;;;;;;;;3725336;37;20469;-67
2021/06/03 13:31:59;;;;;;;;;5.00;4.00;;;;;;;;3725107;37;20443;-66
2021/06/03 13:34:38;;;;;;;;;3.00;3.00;;;;;;;;3725318;37;20441;-66
2021/06/03 13:37:06;;;;;;;;;4.00;4.00;;;;;;;;3725019;38;20591;-64
2021/06/03 13:39:38;;;;;;;;;4.00;4.00;;;;;;;;3725381;37;20458;-67
2021/06/03 13:42:10;;;;;;;;;5.00;4.00;;;;;;;;3725213;38;20369;-65
2021/06/03 13:45:21;;;;;;;;;3.00;3.00;;;;;;;;3724922;37;20370;-64
2021/06/03 13:48:13;;;;;;;;;3.75;3.75;;;;;;;;3725385;37;20419;-64
2021/06/03 13:51:07;;;;;;;;;6.75;5.00;;;;;;;;3725283;38;20434;-67
2021/06/03 13:53:40;;;;;;;;;5.00;5.00;;;;;;;;3725477;37;20357;-65
2021/06/03 13:56:29;;;;;;;;;6.50;4.50;;;;;;;;3724909;37;20430;-65
2021/06/03 13:59:00;;;;;;;;;6.25;5.00;;;;;;;;3727397;37;20421;-65
2021/06/03 14:01:30;;;;;;;;;3.50;3.50;;;;;;;;3726361;37;20411;-66
2021/06/03 14:04:06;;;;;;;;;5.00;5.00;;;;;;;;3725267;37;20388;-65
2021/06/03 14:06:38;;;;;;;;;5.00;4.75;;;;;;;;3725415;37;20337;-64
2021/06/03 14:09:28;;;;;;;;;3.00;3.00;;;;;;;;3724800;38;20390;-66
2021/06/03 14:15:07;;;;;;;;;4.00;4.00;;;;;;;;3725667;37;20323;-66
2021/06/03 14:17:34;;;;;;;;;3.50;3.50;;;;;;;;3725512;37;20374;-66
2021/06/03 14:20:00;;;;;;;;;4.75;4.75;;;;;;;;3725238;38;20393;-66
2021/06/03 14:22:33;;;;;;;;;4.50;4.25;;;;;;;;3724755;38;20388;-65
2021/06/03 14:25:10;;;;;;;;;3.00;3.00;;;;;;;;3724492;37;20383;-65
2021/06/03 14:27:44;;;;;;;;;5.00;5.00;;;;;;;;3725081;38;20351;-63
2021/06/03 14:30:13;;;;;;;;;3.00;3.00;;;;;;;;3724849;38;20331;-63
2021/06/03 14:32:58;;;;;;;;;4.00;4.00;;;;;;;;3724808;37;20378;-65
2021/06/03 14:35:31;;;;;;;;;3.75;3.00;;;;;;;;3725631;37;20393;-66
2021/06/03 14:38:09;;;;;;;;;3.75;3.75;;;;;;;;3725415;37;20376;-65
2021/06/03 14:40:43;;;;;;;;;5.00;5.00;;;;;;;;3724938;38;20295;-65
2021/06/03 14:43:37;;;;;;;;;4.00;3.00;;;;;;;;3724765;38;20292;-64
2021/06/03 14:46:07;;;;;;;;;4.75;4.75;;;;;;;;3725293;37;20369;-65
2021/06/03 14:48:36;;;;;;;;;3.00;3.00;;;;;;;;3725043;38;20276;-64
2021/06/03 14:51:05;;;;;;;;;3.50;3.50;;;;;;;;3724790;38;20298;-66
2021/06/03 14:53:33;;;;;;;;;3.00;3.00;;;;;;;;3724723;38;20337;-69
2021/06/03 14:56:00;;;;;;;;;66.50;55.75;;;;;;;;3725106;37;20340;-68
2021/06/03 14:58:27;;;;;;;;;7.25;6.75;;;;;;;;3725093;37;20353;-68
2021/06/03 15:00:57;;;;;;;;;5.00;5.00;;;;;;;;3724997;37;20232;-64
2021/06/03 15:03:24;;;;;;;;;3.75;3.75;;;;;;;;3725290;37;20261;-64
2021/06/03 15:05:54;;;;;;;;;3.25;3.00;;;;;;;;3724945;37;20321;-65